Time;durP1;ratioP1;P1;durP2;ratioP2;P2;SDS_P1;SDS_P2;PMS_P1;PMS_P2;Temp;Humidity;BMP_temperature;BMP_pressure;BME280_temperature;BME280_humidity;BME280_pressure;Samples;Min_cycle;Max_cycle;Signal;HPM_P1;HPM_P2
2022/01/22 00:00:51;;;;;;;16.85;2.30;;;6.30;99.90;;;;;;4943418;28;20100;-71
2022/01/22 00:03:17;;;;;;;17.55;2.60;;;6.30;99.90;;;;;;4942236;28;20506;-70
2022/01/22 00:05:43;;;;;;;14.45;2.30;;;6.40;99.90;;;;;;4940554;28;20487;-70
2022/01/22 00:08:08;;;;;;;23.02;2.80;;;6.40;99.90;;;;;;4933493;28;20043;-71
2022/01/22 00:10:34;;;;;;;20.98;2.67;;;6.30;99.90;;;;;;4932636;28;20051;-70
2022/01/22 00:15:29;;;;;;;10.68;2.30;;;6.40;99.90;;;;;;4932503;28;20138;-71
2022/01/22 00:17:56;;;;;;;17.00;2.55;;;6.30;99.90;;;;;;4933930;28;20051;-70
2022/01/22 00:20:24;;;;;;;15.02;1.77;;;6.40;99.90;;;;;;4941278;28;20046;-70
2022/01/22 00:22:51;;;;;;;16.50;1.70;;;6.30;99.90;;;;;;4931201;28;20055;-71
2022/01/22 00:25:18;;;;;;;12.02;1.85;;;6.40;99.90;;;;;;4933109;28;20070;-70
2022/01/22 00:27:46;;;;;;;10.50;1.80;;;6.30;99.90;;;;;;4935213;28;20051;-71
2022/01/22 00:30:15;;;;;;;17.95;2.20;;;6.40;99.90;;;;;;4941189;28;20098;-70
2022/01/22 00:32:41;;;;;;;12.75;1.67;;;6.40;99.90;;;;;;4936998;28;20050;-70
2022/01/22 00:35:08;;;;;;;17.45;2.65;;;6.40;99.90;;;;;;4938116;28;20665;-70
2022/01/22 00:37:35;;;;;;;18.70;1.98;;;6.40;99.90;;;;;;4934117;28;20087;-70
2022/01/22 00:40:03;;;;;;;18.90;2.13;;;6.40;99.90;;;;;;4937560;28;20055;-71
2022/01/22 00:42:31;;;;;;;13.52;1.70;;;6.40;99.90;;;;;;4937095;28;20056;-70
2022/01/22 00:44:56;;;;;;;12.43;1.95;;;6.40;99.90;;;;;;4939253;28;20486;-70
2022/01/22 00:47:22;;;;;;;16.23;1.67;;;6.40;99.90;;;;;;4932660;28;20055;-70
2022/01/22 00:49:47;;;;;;;17.02;2.05;;;6.50;99.90;;;;;;4938592;28;20398;-71
2022/01/22 00:52:13;;;;;;;12.20;1.73;;;6.40;99.90;;;;;;4933234;28;20414;-70
2022/01/22 00:54:39;;;;;;;20.88;2.25;;;6.40;99.90;;;;;;4932719;28;20071;-70
2022/01/22 00:57:04;;;;;;;22.73;2.83;;;6.40;99.90;;;;;;4935997;28;20040;-70
2022/01/22 00:59:30;;;;;;;14.40;2.22;;;6.40;99.90;;;;;;4940232;29;20067;-70
2022/01/22 01:01:56;;;;;;;22.38;2.40;;;6.40;99.90;;;;;;4932453;28;20052;-70
2022/01/22 01:04:22;;;;;;;12.93;2.47;;;6.40;99.90;;;;;;4932076;28;20035;-70
2022/01/22 01:06:48;;;;;;;16.38;1.85;;;6.40;99.90;;;;;;4930224;28;20142;-70
2022/01/22 01:09:14;;;;;;;17.55;2.00;;;6.40;99.90;;;;;;4936280;28;20969;-70
2022/01/22 01:11:46;;;;;;;8.73;1.35;;;6.40;99.90;;;;;;4933571;28;20483;-70
2022/01/22 01:14:17;;;;;;;11.60;1.60;;;6.40;99.90;;;;;;4931207;28;20398;-70
2022/01/22 01:16:56;;;;;;;18.38;2.72;;;6.50;99.90;;;;;;4932271;28;20126;-70
2022/01/22 01:33:09;;;;;;;18.58;2.95;;;6.50;99.90;;;;;;4936807;28;20402;-71
2022/01/22 01:35:38;;;;;;;12.35;2.25;;;6.50;99.90;;;;;;4935355;28;20514;-70
2022/01/22 01:38:04;;;;;;;12.57;2.75;;;6.60;99.90;;;;;;4935450;28;20062;-71
2022/01/22 01:40:32;;;;;;;15.32;2.10;;;6.50;99.90;;;;;;4937636;28;20056;-71
2022/01/22 01:45:23;;;;;;;12.55;1.90;;;6.50;99.90;;;;;;4934659;28;20063;-71
2022/01/22 01:48:01;;;;;;;14.70;1.90;;;6.50;99.90;;;;;;4931810;28;20052;-71
2022/01/22 01:50:27;;;;;;;10.00;1.63;;;6.50;99.90;;;;;;4945836;28;20039;-71
2022/01/22 01:58:13;;;;;;;10.63;1.63;;;6.50;99.90;;;;;;4936020;28;20825;-71
2022/01/22 02:00:39;;;;;;;7.68;1.33;;;6.50;99.90;;;;;;4936208;28;20043;-71
2022/01/22 02:03:05;;;;;;;8.73;1.48;;;6.50;99.90;;;;;;4938195;28;20046;-71
2022/01/22 02:05:33;;;;;;;7.18;1.30;;;6.60;99.90;;;;;;4936937;28;20070;-71
2022/01/22 02:07:58;;;;;;;7.38;1.13;;;6.50;99.90;;;;;;4935179;28;20040;-71
2022/01/22 02:10:28;;;;;;;8.43;1.23;;;6.50;99.90;;;;;;4932941;28;20379;-71
2022/01/22 02:23:43;;;;;;;5.65;1.25;;;6.50;99.90;;;;;;4938155;29;20598;-71
2022/01/22 02:26:11;;;;;;;10.80;1.20;;;6.50;99.90;;;;;;4931651;28;20055;-71
2022/01/22 02:28:37;;;;;;;6.60;1.08;;;6.50;99.90;;;;;;4932727;28;20047;-71
2022/01/22 02:31:12;;;;;;;7.85;1.30;;;6.50;99.90;;;;;;4935784;28;20047;-71
2022/01/22 02:36:25;;;;;;;12.52;2.00;;;6.50;99.90;;;;;;4945854;29;20494;-71
2022/01/22 02:38:58;;;;;;;9.70;2.17;;;6.50;99.90;;;;;;4932888;28;20434;-71
2022/01/22 02:41:25;;;;;;;8.05;1.45;;;6.50;99.90;;;;;;4934741;28;20142;-71
2022/01/22 02:43:53;;;;;;;8.77;1.67;;;6.50;99.90;;;;;;4933931;28;20105;-71
2022/01/22 02:46:24;;;;;;;17.63;2.60;;;6.50;99.90;;;;;;4934873;28;20044;-71
2022/01/22 02:48:50;;;;;;;6.05;1.50;;;6.50;99.90;;;;;;4934619;28;20067;-71
2022/01/22 02:51:16;;;;;;;10.63;1.63;;;6.50;99.90;;;;;;4940301;28;20054;-71
2022/01/22 02:53:42;;;;;;;9.60;2.70;;;6.50;99.90;;;;;;4938572;28;20051;-71
2022/01/22 02:56:07;;;;;;;8.25;1.10;;;6.50;99.90;;;;;;4934920;28;20059;-71
2022/01/22 02:58:34;;;;;;;12.30;1.55;;;6.50;99.90;;;;;;4934653;28;20063;-71
2022/01/22 03:01:00;;;;;;;12.45;1.70;;;6.40;99.90;;;;;;4932645;28;20062;-71
2022/01/22 03:03:25;;;;;;;9.05;1.77;;;6.50;99.90;;;;;;4935825;28;20483;-71
2022/01/22 03:05:51;;;;;;;11.25;1.77;;;6.50;99.90;;;;;;4931791;28;20075;-71
2022/01/22 03:08:17;;;;;;;11.43;1.38;;;6.50;99.90;;;;;;4934765;28;20839;-71
2022/01/22 03:10:50;;;;;;;9.20;1.45;;;6.50;99.90;;;;;;4937253;28;20044;-72
2022/01/22 03:14:09;;;;;;;10.30;1.88;;;6.40;99.90;;;;;;4939162;28;20040;-71
2022/01/22 03:16:28;;;;;;;8.50;1.30;;;6.50;99.90;;;;;;4941651;28;20078;-71
2022/01/22 03:19:07;;;;;;;6.38;1.00;;;6.50;99.90;;;;;;4942623;28;20051;-71
2022/01/22 03:21:40;;;;;;;9.65;1.58;;;6.40;99.90;;;;;;4933444;28;20044;-71
2022/01/22 03:29:38;;;;;;;12.85;1.48;;;6.50;99.90;;;;;;4932337;28;20059;-71
2022/01/22 03:32:05;;;;;;;6.97;1.10;;;6.40;99.90;;;;;;4936470;28;20075;-71
2022/01/22 03:34:37;;;;;;;7.97;1.60;;;6.40;99.90;;;;;;4939257;29;20043;-71
2022/01/22 03:37:03;;;;;;;9.20;1.50;;;6.40;99.90;;;;;;4933493;28;20414;-71
2022/01/22 03:39:29;;;;;;;8.38;1.23;;;6.40;99.90;;;;;;4934860;28;20446;-71
2022/01/22 03:41:55;;;;;;;7.97;1.30;;;6.40;99.90;;;;;;4933482;28;20105;-71
2022/01/22 03:44:20;;;;;;;8.27;1.17;;;6.40;99.90;;;;;;4943266;28;20052;-71
2022/01/22 03:46:46;;;;;;;6.68;1.00;;;6.40;99.90;;;;;;4950310;28;20097;-71
2022/01/22 03:49:13;;;;;;;7.95;1.10;;;6.40;99.90;;;;;;4933686;28;20044;-71
2022/01/22 03:51:39;;;;;;;11.60;1.70;;;6.40;99.90;;;;;;4935253;28;20090;-71
2022/01/22 03:54:04;;;;;;;8.13;1.17;;;6.40;99.90;;;;;;4934261;28;20075;-71
2022/01/22 03:56:30;;;;;;;10.02;1.30;;;6.40;99.90;;;;;;4932369;28;20092;-71
2022/01/22 03:58:55;;;;;;;7.68;1.05;;;6.40;99.90;;;;;;4931953;28;20078;-71
2022/01/22 04:02:07;;;;;;;8.88;1.42;;;6.40;99.90;;;;;;4936387;28;20102;-71
2022/01/22 04:04:12;;;;;;;9.95;1.48;;;7.00;99.90;;;;;;4933978;28;20059;-71
2022/01/22 04:09:09;;;;;;;7.95;1.40;;;6.40;99.90;;;;;;4930713;29;20047;-71
2022/01/22 04:11:39;;;;;;;8.55;1.13;;;6.40;99.90;;;;;;4932320;28;20063;-71
2022/01/22 04:14:11;;;;;;;8.30;1.40;;;6.40;99.90;;;;;;4943548;28;20086;-71
2022/01/22 04:16:43;;;;;;;9.02;1.15;;;6.40;99.90;;;;;;4934408;28;20050;-71
2022/01/22 04:24:51;;;;;;;7.95;1.00;;;6.40;99.90;;;;;;4941067;28;20479;-71
2022/01/22 04:27:22;;;;;;;9.60;1.35;;;6.40;99.90;;;;;;4931184;28;20138;-71
2022/01/22 04:29:48;;;;;;;6.30;1.15;;;6.40;99.90;;;;;;4934477;28;20054;-71
2022/01/22 04:32:13;;;;;;;6.85;1.00;;;6.40;99.90;;;;;;4934483;28;20047;-71
2022/01/22 04:34:39;;;;;;;8.00;1.02;;;6.40;99.90;;;;;;4932954;28;20039;-71
2022/01/22 04:37:04;;;;;;;7.38;0.98;;;6.40;99.90;;;;;;4930395;28;20130;-71
2022/01/22 04:39:30;;;;;;;6.47;1.50;;;6.40;99.90;;;;;;4931189;28;20040;-71
2022/01/22 04:41:57;;;;;;;7.00;1.05;;;6.40;99.90;;;;;;4932430;28;20193;-71
2022/01/22 04:44:26;;;;;;;10.02;1.30;;;6.40;99.90;;;;;;4935357;28;20043;-71
2022/01/22 04:47:00;;;;;;;9.40;1.48;;;6.40;99.90;;;;;;4935156;28;20514;-72
2022/01/22 04:57:21;;;;;;;8.45;1.30;;;6.40;99.90;;;;;;4933682;28;20301;-71
2022/01/22 04:59:46;;;;;;;5.40;1.05;;;6.40;99.90;;;;;;4931813;28;20135;-71
2022/01/22 05:02:12;;;;;;;8.45;1.02;;;6.40;99.90;;;;;;4936411;28;20040;-71
2022/01/22 05:04:38;;;;;;;6.28;0.80;;;6.40;99.90;;;;;;4940621;28;20418;-71
2022/01/22 05:07:04;;;;;;;4.47;1.13;;;6.40;99.90;;;;;;4932317;28;20074;-71
2022/01/22 05:09:30;;;;;;;6.32;0.60;;;6.40;99.90;;;;;;4936091;28;20043;-71
2022/01/22 05:11:56;;;;;;;8.77;0.90;;;6.40;99.90;;;;;;4933281;28;20048;-71
2022/01/22 05:14:23;;;;;;;4.65;0.70;;;6.40;99.90;;;;;;4935392;28;20062;-71
2022/01/22 05:16:49;;;;;;;8.10;0.88;;;6.50;99.90;;;;;;4938757;28;20437;-71
2022/01/22 05:19:23;;;;;;;6.10;1.00;;;6.40;99.90;;;;;;4936846;28;20117;-71
2022/01/22 05:21:51;;;;;;;5.10;1.02;;;6.40;99.90;;;;;;4934375;28;20412;-71
2022/01/22 05:24:22;;;;;;;8.52;0.95;;;6.40;99.90;;;;;;4937372;28;20498;-71
2022/01/22 05:27:32;;;;;;;3.53;0.70;;;6.40;99.90;;;;;;4935975;28;20506;-72
2022/01/22 05:32:34;;;;;;;7.60;0.90;;;6.40;99.90;;;;;;4947293;28;20054;-71
2022/01/22 05:37:44;;;;;;;7.78;0.70;;;6.40;99.90;;;;;;4939719;28;20055;-71
2022/01/22 05:40:10;;;;;;;8.45;0.90;;;6.40;99.90;;;;;;4936471;28;20109;-71
2022/01/22 05:42:36;;;;;;;8.27;1.25;;;6.40;99.90;;;;;;4933369;28;21913;-71
2022/01/22 05:45:06;;;;;;;10.75;1.02;;;6.40;99.90;;;;;;4944487;28;20047;-71
2022/01/22 05:47:32;;;;;;;7.68;1.10;;;6.40;99.90;;;;;;4942238;28;20043;-71
2022/01/22 05:49:58;;;;;;;8.20;1.02;;;6.40;99.90;;;;;;4939259;28;20091;-71
2022/01/22 05:52:35;;;;;;;10.52;1.55;;;6.40;99.90;;;;;;4934400;28;20051;-71
2022/01/22 06:00:17;;;;;;;6.85;1.13;;;6.40;99.90;;;;;;4943350;28;20047;-71
2022/01/22 06:02:43;;;;;;;8.25;1.75;;;6.40;99.90;;;;;;4935719;28;20052;-71
2022/01/22 06:05:08;;;;;;;7.57;1.15;;;6.40;99.90;;;;;;4942450;28;20043;-71
2022/01/22 06:07:34;;;;;;;11.10;1.50;;;6.40;99.90;;;;;;4941768;28;20390;-71
2022/01/22 06:15:00;;;;;;;12.45;1.58;;;6.30;99.90;;;;;;4934296;28;20048;-71
2022/01/22 06:17:26;;;;;;;10.82;1.67;;;6.30;99.90;;;;;;4941811;28;20053;-70
2022/01/22 06:19:51;;;;;;;8.90;1.70;;;6.30;99.90;;;;;;4940860;28;20510;-70
2022/01/22 06:22:17;;;;;;;6.45;1.02;;;6.40;99.90;;;;;;4937679;28;20071;-70
2022/01/22 06:24:43;;;;;;;12.88;1.70;;;6.30;99.90;;;;;;4933128;28;20078;-71
2022/01/22 06:27:08;;;;;;;13.00;1.20;;;6.30;99.90;;;;;;4937507;28;20048;-71
2022/01/22 06:29:34;;;;;;;9.50;1.60;;;6.30;99.90;;;;;;4939915;28;20047;-71
2022/01/22 06:31:59;;;;;;;7.53;0.90;;;6.30;99.90;;;;;;4933425;28;20048;-71
2022/01/22 06:34:25;;;;;;;8.05;1.30;;;6.40;99.90;;;;;;4937906;28;20048;-71
2022/01/22 06:36:50;;;;;;;12.00;1.25;;;6.30;99.90;;;;;;4933997;28;20083;-71
2022/01/22 06:39:19;;;;;;;9.05;1.60;;;6.40;99.90;;;;;;4936143;28;20502;-71
2022/01/22 06:41:45;;;;;;;11.63;2.00;;;6.30;99.90;;;;;;4943967;28;20063;-71
2022/01/22 06:44:12;;;;;;;7.93;1.60;;;6.30;99.90;;;;;;4945589;28;20051;-71
2022/01/22 06:46:40;;;;;;;8.38;1.45;;;6.30;99.90;;;;;;4931858;28;20051;-71
2022/01/22 06:49:06;;;;;;;5.00;1.00;;;6.30;99.90;;;;;;4933826;28;20130;-70
2022/01/22 06:51:33;;;;;;;7.25;1.13;;;6.30;99.90;;;;;;4940376;28;20193;-71
2022/01/22 06:53:58;;;;;;;8.30;1.45;;;6.40;99.90;;;;;;4937026;28;20043;-71
2022/01/22 06:56:25;;;;;;;8.13;1.30;;;6.30;99.90;;;;;;4934982;28;20133;-71
2022/01/22 06:58:51;;;;;;;10.73;1.15;;;6.30;99.90;;;;;;4936220;28;20054;-71
2022/01/22 07:01:16;;;;;;;9.68;1.98;;;6.30;99.90;;;;;;4937306;28;20114;-71
2022/01/22 07:03:42;;;;;;;8.40;1.30;;;6.30;99.90;;;;;;4939918;28;20047;-71
2022/01/22 07:06:08;;;;;;;10.60;1.65;;;6.30;99.90;;;;;;4934066;28;20419;-71
2022/01/22 07:08:33;;;;;;;9.73;1.58;;;6.40;99.90;;;;;;4943507;28;20715;-79
2022/01/22 07:11:00;;;;;;;7.80;1.50;;;6.30;99.90;;;;;;4935052;28;20043;-78
2022/01/22 07:13:25;;;;;;;5.85;1.05;;;6.30;99.90;;;;;;4930289;28;20667;-74
2022/01/22 07:15:51;;;;;;;9.10;1.30;;;6.30;99.90;;;;;;4938958;28;20050;-72
2022/01/22 07:18:16;;;;;;;7.53;1.20;;;6.30;99.90;;;;;;4935445;28;20538;-76
2022/01/22 07:20:43;;;;;;;7.28;1.42;;;6.30;99.90;;;;;;4938486;28;20051;-73
2022/01/22 07:23:55;;;;;;;7.10;1.20;;;6.30;99.90;;;;;;4935330;28;20047;-74
2022/01/22 07:25:58;;;;;;;7.82;1.20;;;6.30;99.90;;;;;;4931467;28;20067;-74
2022/01/22 07:28:23;;;;;;;4.30;1.10;;;6.30;99.90;;;;;;4933910;28;20055;-74
2022/01/22 07:30:49;;;;;;;6.65;1.13;;;6.30;99.90;;;;;;4933607;28;20048;-73
2022/01/22 07:33:15;;;;;;;7.55;1.40;;;6.30;99.90;;;;;;4937111;28;20108;-73
2022/01/22 07:35:41;;;;;;;5.47;1.15;;;6.30;99.90;;;;;;4934367;28;20492;-73
2022/01/22 07:38:09;;;;;;;5.05;1.50;;;6.30;99.90;;;;;;4935358;28;20050;-73
2022/01/22 07:40:35;;;;;;;8.65;1.30;;;6.30;99.90;;;;;;4934527;28;20097;-73
2022/01/22 07:43:01;;;;;;;7.40;1.90;;;6.30;99.90;;;;;;4937467;29;20071;-73
2022/01/22 07:45:27;;;;;;;5.75;1.05;;;6.30;99.90;;;;;;4935829;28;20070;-73
2022/01/22 07:47:52;;;;;;;7.90;1.70;;;6.30;99.90;;;;;;4934251;28;20075;-73
2022/01/22 07:50:18;;;;;;;9.80;1.80;;;6.30;99.90;;;;;;4934327;28;20481;-73
2022/01/22 07:52:44;;;;;;;7.88;1.75;;;6.20;99.90;;;;;;4939900;28;20051;-73
2022/01/22 07:55:10;;;;;;;7.65;1.67;;;6.30;99.90;;;;;;4934727;28;20047;-73
2022/01/22 07:57:36;;;;;;;5.95;1.20;;;6.20;99.90;;;;;;4936739;28;20081;-73
2022/01/22 08:00:03;;;;;;;11.63;1.40;;;6.20;99.90;;;;;;4932562;28;20058;-73
2022/01/22 08:02:28;;;;;;;4.72;1.45;;;6.20;99.90;;;;;;4933582;28;20079;-72
2022/01/22 08:04:54;;;;;;;5.03;0.90;;;6.30;99.90;;;;;;4935543;28;20470;-73
2022/01/22 08:07:19;;;;;;;6.93;1.30;;;6.20;99.90;;;;;;4942256;28;20055;-73
2022/01/22 08:09:45;;;;;;;5.55;0.98;;;6.30;99.90;;;;;;4936360;28;20074;-73
2022/01/22 08:12:11;;;;;;;5.32;1.00;;;6.20;99.90;;;;;;4934751;28;20062;-73
2022/01/22 08:14:37;;;;;;;5.22;1.25;;;6.20;99.90;;;;;;4928971;28;20445;-73
2022/01/22 08:17:03;;;;;;;7.57;1.23;;;6.20;99.90;;;;;;4936771;28;20047;-73
2022/01/22 08:19:28;;;;;;;5.60;1.30;;;6.20;99.90;;;;;;4945375;28;20053;-72
2022/01/22 08:21:54;;;;;;;4.05;1.00;;;6.20;99.90;;;;;;4949788;28;20063;-74
2022/01/22 08:24:24;;;;;;;8.60;1.10;;;6.20;99.90;;;;;;4954407;28;20396;-74
2022/01/22 08:27:04;;;;;;;6.63;0.98;;;6.20;99.90;;;;;;4932729;28;20050;-73
2022/01/22 08:29:30;;;;;;;5.43;1.90;;;6.20;99.90;;;;;;4950643;28;20399;-71
2022/01/22 08:37:24;;;;;;;8.60;1.30;;;6.30;99.90;;;;;;4933379;28;20109;-74
2022/01/22 08:39:50;;;;;;;6.43;1.40;;;6.20;99.90;;;;;;4931005;28;20047;-72
2022/01/22 08:42:15;;;;;;;6.95;1.58;;;6.30;99.90;;;;;;4941696;28;20054;-71
2022/01/22 08:44:41;;;;;;;6.55;1.00;;;6.30;99.90;;;;;;4933318;28;20557;-71
2022/01/22 08:47:07;;;;;;;6.45;1.17;;;6.30;99.90;;;;;;4944235;28;20086;-71
2022/01/22 08:49:33;;;;;;;8.07;1.02;;;6.30;99.90;;;;;;4939638;28;20043;-71
2022/01/22 08:52:00;;;;;;;4.07;1.17;;;6.40;99.90;;;;;;4939225;28;20101;-71
2022/01/22 08:54:26;;;;;;;6.45;1.20;;;6.30;99.90;;;;;;4935616;29;20043;-71
2022/01/22 08:56:52;;;;;;;5.72;1.30;;;6.30;99.90;;;;;;4931884;28;20043;-71
2022/01/22 08:59:17;;;;;;;7.18;1.20;;;6.30;99.90;;;;;;4933864;28;20078;-71
2022/01/22 09:01:45;;;;;;;5.70;1.40;;;6.30;99.90;;;;;;4931876;28;20090;-71
2022/01/22 09:04:11;;;;;;;5.07;1.60;;;6.40;99.90;;;;;;4931691;28;20058;-71
2022/01/22 09:06:36;;;;;;;6.55;1.05;;;6.30;99.90;;;;;;4929978;28;20044;-71
2022/01/22 09:09:10;;;;;;;7.28;1.20;;;6.30;99.90;;;;;;4938589;28;20537;-71
2022/01/22 09:11:36;;;;;;;5.07;1.10;;;6.40;99.90;;;;;;4933693;28;20102;-70
2022/01/22 09:14:05;;;;;;;6.53;1.55;;;6.40;99.90;;;;;;4928704;28;20101;-71
2022/01/22 09:16:30;;;;;;;6.65;1.20;;;6.40;99.90;;;;;;4935782;28;20051;-70
2022/01/22 09:19:01;;;;;;;10.23;1.48;;;6.40;99.90;;;;;;4931662;28;20051;-70
2022/01/22 09:21:27;;;;;;;8.43;1.00;;;6.40;99.90;;;;;;4934635;28;20039;-70
2022/01/22 09:23:52;;;;;;;7.70;1.00;;;6.40;99.90;;;;;;4951768;28;20114;-71
2022/01/22 09:26:19;;;;;;;10.82;1.33;;;6.50;99.90;;;;;;4933910;28;20070;-70
2022/01/22 09:28:46;;;;;;;6.75;0.75;;;6.40;99.90;;;;;;4945358;28;20055;-70
2022/01/22 09:31:12;;;;;;;7.60;1.10;;;6.40;99.90;;;;;;4938877;29;20474;-70
2022/01/22 09:33:39;;;;;;;6.28;1.02;;;6.40;99.90;;;;;;4932125;28;20139;-70
2022/01/22 09:36:05;;;;;;;8.52;1.45;;;6.40;99.90;;;;;;4931093;28;20060;-71
2022/01/22 09:38:30;;;;;;;7.20;1.30;;;6.40;99.90;;;;;;4938105;28;20056;-71
2022/01/22 09:40:56;;;;;;;5.75;1.30;;;6.40;99.90;;;;;;4932761;28;21353;-70
2022/01/22 09:43:23;;;;;;;10.10;1.60;;;6.40;99.90;;;;;;4939476;28;20059;-71
2022/01/22 09:45:49;;;;;;;10.13;1.45;;;6.40;99.90;;;;;;4935330;28;20055;-74
2022/01/22 09:48:15;;;;;;;9.50;1.65;;;6.40;99.90;;;;;;4933205;28;20579;-73
2022/01/22 09:50:40;;;;;;;10.15;1.65;;;6.40;99.90;;;;;;4984181;28;20139;-73
2022/01/22 09:53:06;;;;;;;12.00;1.40;;;6.40;99.90;;;;;;4932731;28;20052;-71
2022/01/22 09:55:32;;;;;;;8.02;1.00;;;6.40;99.90;;;;;;4934061;28;20411;-71
2022/01/22 09:57:58;;;;;;;5.43;1.20;;;6.40;99.90;;;;;;4930389;28;20050;-71
2022/01/22 10:00:25;;;;;;;9.35;1.40;;;6.40;99.90;;;;;;4937790;28;20043;-71
2022/01/22 10:02:55;;;;;;;8.43;1.25;;;6.50;99.90;;;;;;4929360;28;20495;-71
2022/01/22 10:05:27;;;;;;;9.60;1.75;;;6.50;99.90;;;;;;4936153;28;20498;-71
2022/01/22 10:07:53;;;;;;;6.22;1.25;;;6.50;99.90;;;;;;4934660;28;20427;-71
2022/01/22 10:10:20;;;;;;;13.27;1.55;;;6.50;99.90;;;;;;4935719;28;20078;-71
2022/01/22 10:12:52;;;;;;;7.88;1.02;;;6.60;99.90;;;;;;4933264;28;20090;-71
2022/01/22 10:15:19;;;;;;;11.82;2.08;;;6.50;99.90;;;;;;4943884;28;20051;-71
2022/01/22 10:17:54;;;;;;;9.13;1.65;;;6.60;99.90;;;;;;4954779;28;20405;-71
2022/01/22 10:20:29;;;;;;;10.52;1.98;;;6.60;99.90;;;;;;4944318;28;20090;-71
2022/01/22 10:23:08;;;;;;;9.88;1.85;;;6.60;99.90;;;;;;4937833;28;20062;-71
2022/01/22 10:25:44;;;;;;;11.13;1.90;;;6.60;99.90;;;;;;4954118;28;20501;-71
2022/01/22 10:28:48;;;;;;;7.93;1.65;;;6.60;99.90;;;;;;4958682;28;20402;-71
2022/01/22 10:31:25;;;;;;;9.15;1.60;;;6.70;99.90;;;;;;4958912;28;20048;-71
2022/01/22 10:34:08;;;;;;;7.28;1.40;;;6.70;99.90;;;;;;4950300;28;20070;-71
2022/01/22 10:36:34;;;;;;;7.97;1.48;;;6.70;99.90;;;;;;4933198;28;20062;-71
2022/01/22 10:39:00;;;;;;;7.75;1.90;;;6.70;99.90;;;;;;4937359;28;20048;-71
2022/01/22 10:41:42;;;;;;;6.70;1.50;;;6.70;99.90;;;;;;4936956;28;20051;-71
2022/01/22 10:44:14;;;;;;;10.20;2.22;;;6.70;99.90;;;;;;4942524;28;20035;-71
2022/01/22 10:46:51;;;;;;;10.27;1.90;;;6.70;99.90;;;;;;4938892;28;20410;-71
2022/01/22 10:49:22;;;;;;;8.15;1.70;;;6.70;99.90;;;;;;4947723;28;20043;-71
2022/01/22 10:51:52;;;;;;;9.02;1.58;;;6.70;99.90;;;;;;4937972;28;20062;-72
2022/01/22 10:54:22;;;;;;;7.80;1.85;;;6.70;99.90;;;;;;4942413;28;20074;-72
2022/01/22 10:56:49;;;;;;;7.30;1.42;;;6.80;99.90;;;;;;4934300;28;20466;-72
2022/01/22 10:59:17;;;;;;;13.48;1.50;;;6.70;99.90;;;;;;4934083;28;20482;-72
2022/01/22 11:02:03;;;;;;;9.95;1.33;;;6.70;99.90;;;;;;4938265;28;20047;-75
2022/01/22 11:04:39;;;;;;;9.50;1.98;;;6.80;99.90;;;;;;4934228;28;20044;-69
2022/01/22 11:07:06;;;;;;;7.05;1.88;;;6.80;99.90;;;;;;4948525;28;20053;-72
2022/01/22 11:09:33;;;;;;;11.02;2.75;;;6.80;99.90;;;;;;4944387;28;20118;-69
2022/01/22 11:12:00;;;;;;;7.32;2.28;;;6.70;99.90;;;;;;4933224;28;20516;-69
2022/01/22 11:14:28;;;;;;;17.17;5.63;;;6.70;99.90;;;;;;4937490;28;20106;-70
2022/01/22 11:16:54;;;;;;;11.23;2.65;;;6.80;99.90;;;;;;4934763;28;20964;-69
2022/01/22 11:19:33;;;;;;;12.20;2.30;;;6.70;99.90;;;;;;4941088;28;20490;-69
2022/01/22 11:22:04;;;;;;;6.65;2.08;;;6.80;99.90;;;;;;4940745;28;20410;-69
2022/01/22 11:24:34;;;;;;;13.38;2.53;;;6.80;99.90;;;;;;4938135;28;20360;-69
2022/01/22 11:27:02;;;;;;;9.20;2.13;;;6.80;99.90;;;;;;4942685;28;20102;-69
2022/01/22 11:29:32;;;;;;;9.80;2.00;;;6.80;99.90;;;;;;4955131;28;20078;-69
2022/01/22 11:32:04;;;;;;;12.93;3.00;;;6.80;99.90;;;;;;4982348;28;20058;-69
2022/01/22 11:34:32;;;;;;;11.65;3.35;;;6.80;99.90;;;;;;4945051;28;20045;-69
2022/01/22 11:37:06;;;;;;;9.93;3.03;;;6.80;99.90;;;;;;4950232;28;20097;-69
2022/01/22 11:39:31;;;;;;;15.43;2.58;;;6.80;99.90;;;;;;4935994;28;20094;-69
2022/01/22 11:41:59;;;;;;;11.23;2.78;;;6.80;99.90;;;;;;4948462;28;20511;-69
2022/01/22 11:44:29;;;;;;;8.90;2.88;;;6.80;99.90;;;;;;4939391;28;20079;-71
2022/01/22 11:47:08;;;;;;;11.25;3.08;;;6.90;99.90;;;;;;4940465;28;20055;-71
2022/01/22 11:49:34;;;;;;;13.23;3.10;;;6.80;99.90;;;;;;4941185;28;20055;-71
2022/01/22 11:52:12;;;;;;;14.27;3.95;;;6.80;99.90;;;;;;4941194;28;20471;-71
2022/01/22 11:54:54;;;;;;;11.07;3.80;;;6.80;99.90;;;;;;4933384;28;20043;-71
2022/01/22 11:57:21;;;;;;;11.23;4.07;;;6.80;99.90;;;;;;4936146;28;20059;-71
2022/01/22 11:59:47;;;;;;;16.48;3.63;;;6.80;99.90;;;;;;4937640;28;20127;-71
2022/01/22 12:02:15;;;;;;;11.73;3.05;;;6.80;99.90;;;;;;4931976;28;20471;-71
2022/01/22 12:04:40;;;;;;;11.45;3.67;;;6.80;99.90;;;;;;4932135;28;20044;-71
2022/01/22 12:07:08;;;;;;;15.73;3.25;;;6.80;99.90;;;;;;4938270;28;20082;-75
2022/01/22 12:09:54;;;;;;;16.25;3.78;;;6.80;99.90;;;;;;4954994;28;20047;-70
2022/01/22 12:15:30;;;;;;;13.32;3.58;;;6.80;99.90;;;;;;4942048;28;20151;-70
2022/01/22 12:18:05;;;;;;;13.50;3.63;;;6.80;99.90;;;;;;4942723;28;20051;-70
2022/01/22 12:23:10;;;;;;;16.17;3.80;;;6.80;99.90;;;;;;4938130;28;20055;-70
2022/01/22 12:25:35;;;;;;;17.58;3.38;;;6.70;99.90;;;;;;4936488;28;20040;-70
2022/01/22 12:28:02;;;;;;;13.27;4.38;;;6.80;99.90;;;;;;4939043;28;20576;-70
2022/01/22 12:30:51;;;;;;;10.93;3.70;;;6.80;99.90;;;;;;4934483;28;20040;-70
2022/01/22 12:33:29;;;;;;;11.07;3.80;;;6.80;99.90;;;;;;4935163;28;20055;-70
2022/01/22 12:36:07;;;;;;;16.13;3.72;;;6.80;99.90;;;;;;4933992;28;20047;-70
2022/01/22 12:38:44;;;;;;;22.42;4.55;;;6.90;99.90;;;;;;4936862;28;20097;-70
2022/01/22 12:44:07;;;;;;;21.15;4.60;;;6.90;99.90;;;;;;4936453;28;20109;-70
2022/01/22 12:46:34;;;;;;;11.70;3.42;;;6.80;99.90;;;;;;4931986;28;20047;-70
2022/01/22 12:49:05;;;;;;;14.93;4.30;;;6.90;99.90;;;;;;4929475;28;20500;-70
2022/01/22 12:51:35;;;;;;;14.95;4.45;;;6.90;99.90;;;;;;4957416;28;20397;-70
2022/01/22 12:54:01;;;;;;;10.85;3.35;;;6.80;99.90;;;;;;4941961;28;20479;-70
2022/01/22 12:59:05;;;;;;;12.80;3.35;;;6.80;99.90;;;;;;4930951;28;20511;-71
2022/01/22 13:01:33;;;;;;;10.32;3.50;;;6.80;99.90;;;;;;4933271;28;20047;-70
2022/01/22 13:04:05;;;;;;;12.15;3.35;;;6.80;99.90;;;;;;4944003;28;20067;-71
2022/01/22 13:06:45;;;;;;;15.15;4.30;;;6.70;99.90;;;;;;4932947;28;20055;-70
2022/01/22 13:09:14;;;;;;;13.27;3.65;;;6.80;99.90;;;;;;4934236;28;20161;-70
2022/01/22 13:11:48;;;;;;;18.15;4.10;;;7.10;99.90;;;;;;4931437;28;20167;-70
2022/01/22 13:14:34;;;;;;;14.57;4.78;;;6.80;99.90;;;;;;4931042;28;20116;-70
2022/01/22 13:16:59;;;;;;;17.23;3.88;;;6.80;99.90;;;;;;4943955;28;20051;-70
2022/01/22 13:19:32;;;;;;;9.88;3.60;;;6.80;99.90;;;;;;4933875;28;20058;-70
2022/01/22 13:22:01;;;;;;;9.68;3.65;;;6.80;99.90;;;;;;4933192;28;20052;-70
2022/01/22 13:24:28;;;;;;;13.48;4.22;;;6.90;99.90;;;;;;4929912;28;20052;-70
2022/01/22 13:27:00;;;;;;;12.20;3.30;;;6.90;99.90;;;;;;4940173;28;20044;-74
2022/01/22 13:29:41;;;;;;;21.15;4.05;;;6.90;99.90;;;;;;4941490;29;20043;-73
2022/01/22 13:32:17;;;;;;;13.30;3.80;;;6.90;99.90;;;;;;4937813;28;20052;-70
2022/01/22 13:35:14;;;;;;;10.15;2.90;;;6.90;99.90;;;;;;4934139;28;20066;-70
